createdAt,value
2018-03-29T00:02:22.090Z,99.90
2018-03-29T00:04:49.529Z,99.90
2018-03-29T00:07:17.011Z,99.90
2018-03-29T00:09:45.287Z,99.90
2018-03-29T00:12:13.490Z,99.90
2018-03-29T00:14:40.948Z,99.90
2018-03-29T00:17:08.421Z,99.90
2018-03-29T00:19:35.896Z,99.90
2018-03-29T00:22:03.342Z,99.90
2018-03-29T00:24:30.802Z,99.90
2018-03-29T00:26:58.235Z,99.90
2018-03-29T00:29:25.695Z,99.90
2018-03-29T00:31:53.140Z,99.90
2018-03-29T00:34:20.583Z,99.90
2018-03-29T00:36:48.815Z,99.90
2018-03-29T00:39:16.251Z,99.90
2018-03-29T00:41:43.715Z,99.90
2018-03-29T00:44:12.031Z,99.90
2018-03-29T00:46:40.249Z,99.90
2018-03-29T00:49:08.456Z,99.90
2018-03-29T00:51:35.902Z,99.90
2018-03-29T00:54:03.363Z,99.90
2018-03-29T00:56:30.803Z,99.50
2018-03-29T00:58:58.269Z,98.80
2018-03-29T01:01:25.709Z,99.90
2018-03-29T01:03:53.193Z,99.90
2018-03-29T01:06:20.630Z,99.90
2018-03-29T01:08:48.059Z,99.90
2018-03-29T01:11:15.519Z,99.90
2018-03-29T01:13:42.982Z,99.30
2018-03-29T01:16:10.418Z,99.40
2018-03-29T01:18:38.644Z,98.40
2018-03-29T01:21:06.755Z,98.50
2018-03-29T01:23:34.262Z,99.00
2018-03-29T01:26:01.740Z,99.20
2018-03-29T01:28:29.955Z,99.10
2018-03-29T01:30:58.168Z,99.70
2018-03-29T01:33:25.639Z,98.80
2018-03-29T01:35:53.095Z,97.50
2018-03-29T01:38:20.545Z,98.20
2018-03-29T01:40:48.015Z,98.00
2018-03-29T01:43:15.455Z,98.40
2018-03-29T01:45:42.921Z,97.80
2018-03-29T01:48:10.395Z,98.00
2018-03-29T01:50:37.830Z,98.50
2018-03-29T01:53:06.147Z,97.80
2018-03-29T01:55:33.592Z,96.40
2018-03-29T01:58:01.035Z,97.60
2018-03-29T02:00:28.487Z,97.00
2018-03-29T02:02:55.928Z,97.50
2018-03-29T02:05:23.409Z,97.90
2018-03-29T02:07:50.860Z,96.60
2018-03-29T02:10:18.326Z,97.00
2018-03-29T02:12:45.828Z,96.30
2018-03-29T02:15:14.047Z,96.70
2018-03-29T02:17:41.504Z,96.70
2018-03-29T02:20:08.972Z,96.10
2018-03-29T02:22:36.443Z,96.00
2018-03-29T02:25:03.884Z,95.80
2018-03-29T02:27:31.357Z,96.30
2018-03-29T02:29:58.817Z,96.50
2018-03-29T02:32:26.265Z,95.60
2018-03-29T02:34:53.720Z,95.50
2018-03-29T02:37:21.172Z,95.00
2018-03-29T02:39:48.624Z,95.00
2018-03-29T02:42:16.096Z,94.10
2018-03-29T02:44:43.542Z,93.90
2018-03-29T02:47:11.002Z,93.70
2018-03-29T02:49:38.471Z,94.00
2018-03-29T02:52:05.931Z,94.00
2018-03-29T02:54:33.358Z,93.50
2018-03-29T02:57:00.801Z,93.40
2018-03-29T02:59:28.251Z,93.70
2018-03-29T03:01:55.718Z,93.80
2018-03-29T03:04:23.145Z,93.00
2018-03-29T03:06:50.595Z,93.30
2018-03-29T03:09:18.824Z,93.30
2018-03-29T03:11:47.023Z,93.00
2018-03-29T03:14:14.483Z,92.70
2018-03-29T03:16:41.935Z,92.90
2018-03-29T03:19:09.366Z,93.00
2018-03-29T03:21:36.848Z,92.90
2018-03-29T03:24:04.286Z,93.10
2018-03-29T03:26:31.746Z,93.40
2018-03-29T03:28:59.212Z,93.70
2018-03-29T03:31:26.655Z,94.70
2018-03-29T03:33:54.119Z,94.50
2018-03-29T03:36:21.557Z,94.90
2018-03-29T03:38:49.495Z,94.90
2018-03-29T03:41:16.955Z,95.30
2018-03-29T03:43:44.396Z,95.20
2018-03-29T03:46:11.852Z,94.50
2018-03-29T03:48:40.048Z,94.70
2018-03-29T03:51:07.516Z,94.60
2018-03-29T03:53:34.969Z,94.80
2018-03-29T03:56:02.522Z,95.00
2018-03-29T03:58:29.970Z,94.10
2018-03-29T04:00:57.404Z,93.90
2018-03-29T04:03:25.650Z,93.80
2018-03-29T04:05:53.216Z,93.20
2018-03-29T04:08:20.639Z,93.40
2018-03-29T04:10:48.100Z,93.00
2018-03-29T04:13:15.553Z,93.00
2018-03-29T04:15:43.013Z,93.00
2018-03-29T04:18:10.460Z,92.30
2018-03-29T04:20:37.932Z,92.30
2018-03-29T04:23:05.394Z,92.20
2018-03-29T04:25:32.851Z,92.30
2018-03-29T04:28:00.302Z,92.40
2018-03-29T04:30:27.773Z,93.00
2018-03-29T04:32:55.246Z,92.90
2018-03-29T04:35:22.683Z,93.20
2018-03-29T04:37:50.148Z,92.30
2018-03-29T04:40:17.625Z,92.30
2018-03-29T04:42:45.083Z,92.50
2018-03-29T04:45:13.308Z,91.70
2018-03-29T04:47:40.781Z,91.60
2018-03-29T04:50:08.208Z,91.70
2018-03-29T04:52:35.638Z,91.90
2018-03-29T04:55:03.949Z,92.30
2018-03-29T04:57:31.373Z,92.30
2018-03-29T04:59:58.837Z,92.60
2018-03-29T05:02:27.060Z,92.60
2018-03-29T05:04:55.027Z,92.30
2018-03-29T05:07:22.463Z,91.90
2018-03-29T05:09:49.928Z,92.20
2018-03-29T05:12:17.360Z,92.20
2018-03-29T05:14:44.848Z,92.10
2018-03-29T05:17:12.390Z,92.20
2018-03-29T05:19:39.814Z,93.20
2018-03-29T05:22:08.053Z,94.50
2018-03-29T05:24:35.506Z,94.10
2018-03-29T05:27:02.943Z,94.00
2018-03-29T05:29:30.410Z,94.10
2018-03-29T05:31:57.863Z,94.40
2018-03-29T05:34:25.718Z,94.40
2018-03-29T05:36:54.064Z,93.90
2018-03-29T05:39:22.272Z,94.10
2018-03-29T05:41:49.733Z,93.80
2018-03-29T05:44:17.183Z,94.10
2018-03-29T05:46:44.642Z,94.30
2018-03-29T05:49:12.104Z,94.60
2018-03-29T05:51:39.560Z,93.40
2018-03-29T05:54:07.111Z,93.40
2018-03-29T05:56:34.536Z,92.60
2018-03-29T05:59:02.771Z,92.90
2018-03-29T06:01:30.219Z,92.90
2018-03-29T06:03:58.439Z,91.60
2018-03-29T06:06:26.699Z,91.70
2018-03-29T06:08:54.172Z,91.70
2018-03-29T06:11:22.380Z,91.90
2018-03-29T06:13:55.468Z,91.90
2018-03-29T06:16:22.904Z,91.80
2018-03-29T06:18:50.373Z,91.50
2018-03-29T06:21:17.814Z,91.10
2018-03-29T06:23:46.120Z,90.60
2018-03-29T06:26:13.585Z,90.60
2018-03-29T06:28:41.134Z,90.50
2018-03-29T06:31:08.697Z,89.30
2018-03-29T06:33:36.130Z,89.00
2018-03-29T06:36:03.570Z,88.00
2018-03-29T06:38:31.792Z,87.10
2018-03-29T06:40:59.239Z,87.00
2018-03-29T06:43:26.703Z,86.10
2018-03-29T06:45:54.186Z,85.70
2018-03-29T06:48:21.642Z,85.60
2018-03-29T06:50:49.091Z,85.20
2018-03-29T06:53:16.626Z,84.30
2018-03-29T06:55:44.103Z,83.20
2018-03-29T06:58:11.577Z,82.90
2018-03-29T07:00:39.015Z,81.50
2018-03-29T07:03:07.228Z,81.30
2018-03-29T07:05:34.680Z,81.30
2018-03-29T07:08:02.125Z,79.90
2018-03-29T07:10:29.580Z,79.80
2018-03-29T07:12:57.041Z,80.10
2018-03-29T07:15:24.487Z,79.60
2018-03-29T07:17:51.935Z,80.20
2018-03-29T07:20:19.395Z,81.70
2018-03-29T07:22:46.836Z,81.10
2018-03-29T07:25:14.298Z,81.40
2018-03-29T07:27:41.760Z,81.40
2018-03-29T07:30:09.212Z,80.30
2018-03-29T07:32:36.671Z,79.20
2018-03-29T07:35:04.124Z,78.20
2018-03-29T07:37:31.575Z,77.40
2018-03-29T07:39:59.016Z,74.00
2018-03-29T07:42:26.493Z,72.50
2018-03-29T07:44:53.924Z,72.30
2018-03-29T07:47:21.399Z,72.30
2018-03-29T07:49:48.868Z,71.70
2018-03-29T07:52:16.321Z,69.20
2018-03-29T07:54:43.781Z,67.20
2018-03-29T07:57:11.259Z,67.80
2018-03-29T07:59:38.739Z,66.70
2018-03-29T08:02:06.239Z,67.10
2018-03-29T08:04:33.690Z,66.90
2018-03-29T08:07:01.139Z,65.70
2018-03-29T08:09:28.599Z,65.10
2018-03-29T08:11:56.060Z,65.80
2018-03-29T08:14:23.526Z,66.60
2018-03-29T08:16:50.971Z,66.90
2018-03-29T08:19:18.417Z,69.30
2018-03-29T08:21:46.675Z,70.50
2018-03-29T08:24:14.127Z,70.40
2018-03-29T08:26:41.564Z,70.90
2018-03-29T08:29:09.112Z,70.50
2018-03-29T08:31:36.519Z,71.30
2018-03-29T08:34:04.763Z,70.00
2018-03-29T08:36:32.235Z,69.80
2018-03-29T08:39:00.452Z,69.40
2018-03-29T08:41:28.903Z,69.30
2018-03-29T08:43:56.387Z,69.40
2018-03-29T08:46:23.823Z,70.00
2018-03-29T08:48:51.263Z,68.70
2018-03-29T08:51:19.498Z,68.60
2018-03-29T08:53:46.956Z,68.60
2018-03-29T08:56:14.411Z,67.90
2018-03-29T08:58:41.869Z,68.80
2018-03-29T09:01:09.325Z,68.60
2018-03-29T09:03:36.767Z,68.80
2018-03-29T09:06:04.319Z,70.10
2018-03-29T09:08:31.760Z,68.90
2018-03-29T09:10:59.232Z,64.80
2018-03-29T09:13:26.676Z,60.50
2018-03-29T09:15:54.890Z,52.90
2018-03-29T09:18:22.358Z,52.80
2018-03-29T09:20:49.800Z,52.50
2018-03-29T09:23:17.269Z,53.50
2018-03-29T09:25:44.732Z,55.90
2018-03-29T09:28:12.181Z,56.60
2018-03-29T09:30:39.639Z,56.50
2018-03-29T09:33:07.092Z,55.30
2018-03-29T09:35:34.563Z,53.50
2018-03-29T09:38:02.019Z,54.60
2018-03-29T09:40:29.491Z,55.20
2018-03-29T09:42:56.934Z,55.70
2018-03-29T09:45:24.403Z,56.20
2018-03-29T09:47:52.615Z,56.60
2018-03-29T09:50:20.115Z,56.30
2018-03-29T09:52:47.575Z,56.70
2018-03-29T09:55:15.070Z,58.80
2018-03-29T09:57:42.522Z,60.20
2018-03-29T10:00:10.726Z,61.70
2018-03-29T10:02:38.183Z,61.70
2018-03-29T10:05:05.661Z,62.40
2018-03-29T10:07:34.061Z,61.80
2018-03-29T10:10:01.517Z,62.90
2018-03-29T10:12:28.955Z,62.80
2018-03-29T10:14:56.427Z,61.40
2018-03-29T10:17:23.889Z,61.70
2018-03-29T10:19:51.368Z,62.00
2018-03-29T10:22:19.363Z,61.90
2018-03-29T10:24:46.812Z,63.40
2018-03-29T10:27:14.289Z,63.10
2018-03-29T10:29:41.859Z,63.60
2018-03-29T10:32:09.287Z,69.50
2018-03-29T10:34:36.734Z,73.30
2018-03-29T10:37:04.978Z,73.40
2018-03-29T10:39:32.420Z,73.40
2018-03-29T10:41:59.886Z,70.10
2018-03-29T10:44:27.368Z,65.90
2018-03-29T10:46:54.849Z,59.90
2018-03-29T10:49:22.320Z,53.50
2018-03-29T10:51:49.763Z,47.80
2018-03-29T10:54:17.233Z,46.00
2018-03-29T10:56:44.719Z,46.50
2018-03-29T10:59:12.181Z,48.90
2018-03-29T11:01:39.627Z,50.70
2018-03-29T11:04:07.112Z,50.00
2018-03-29T11:06:35.121Z,54.50
2018-03-29T11:09:02.626Z,55.60
2018-03-29T11:11:30.100Z,56.70
2018-03-29T11:13:57.606Z,57.10
2018-03-29T11:16:25.062Z,57.70
2018-03-29T11:18:52.524Z,57.30
2018-03-29T11:21:19.985Z,58.30
2018-03-29T11:23:47.454Z,58.40
2018-03-29T11:26:14.951Z,58.70
2018-03-29T11:28:43.166Z,60.10
2018-03-29T11:31:10.631Z,60.10
2018-03-29T11:33:38.104Z,60.90
2018-03-29T11:36:05.544Z,61.20
2018-03-29T11:38:33.025Z,62.00
2018-03-29T11:41:00.526Z,62.60
2018-03-29T11:43:28.731Z,63.80
2018-03-29T11:45:56.223Z,63.80
2018-03-29T11:48:24.464Z,60.90
2018-03-29T11:50:51.945Z,61.10
2018-03-29T11:53:19.398Z,63.80
2018-03-29T11:55:46.887Z,64.30
2018-03-29T11:58:14.334Z,63.70
2018-03-29T12:00:41.813Z,61.80
2018-03-29T12:03:10.016Z,61.70
2018-03-29T12:05:37.493Z,60.30
2018-03-29T12:08:04.976Z,60.40
2018-03-29T12:10:32.426Z,58.80
2018-03-29T12:13:00.657Z,56.50
2018-03-29T12:15:28.123Z,56.50
2018-03-29T12:17:55.587Z,56.40
2018-03-29T12:20:23.038Z,58.00
2018-03-29T12:22:50.481Z,59.30
2018-03-29T12:25:18.012Z,60.60
2018-03-29T12:27:46.256Z,68.40
2018-03-29T12:30:14.561Z,69.70
2018-03-29T12:32:42.026Z,70.70
2018-03-29T12:35:09.485Z,72.70
2018-03-29T12:37:37.695Z,75.40
2018-03-29T12:40:05.183Z,75.30
2018-03-29T12:42:32.652Z,76.10
2018-03-29T12:45:00.144Z,74.60
2018-03-29T12:47:27.557Z,74.40
2018-03-29T12:49:55.011Z,72.90
2018-03-29T12:52:22.467Z,74.30
2018-03-29T12:55:01.962Z,72.30
2018-03-29T12:57:42.102Z,71.40
2018-03-29T13:00:10.359Z,70.00
2018-03-29T13:02:37.798Z,69.80
2018-03-29T13:05:05.255Z,70.80
2018-03-29T13:07:32.712Z,65.10
2018-03-29T13:10:00.167Z,65.60
2018-03-29T13:12:27.647Z,66.10
2018-03-29T13:14:55.902Z,64.80
2018-03-29T13:17:23.356Z,64.80
2018-03-29T13:19:50.811Z,64.80
2018-03-29T13:22:18.300Z,65.60
2018-03-29T13:24:46.526Z,65.50
2018-03-29T13:27:13.992Z,65.50
2018-03-29T13:29:41.445Z,65.70
2018-03-29T13:32:08.919Z,67.30
2018-03-29T13:34:36.460Z,68.10
2018-03-29T13:37:03.939Z,69.60
2018-03-29T13:39:31.387Z,71.80
2018-03-29T13:41:58.880Z,69.80
2018-03-29T13:44:27.096Z,70.60
2018-03-29T13:46:54.606Z,70.50
2018-03-29T13:49:22.450Z,68.10
2018-03-29T13:51:49.928Z,68.50
2018-03-29T13:54:18.247Z,68.90
2018-03-29T13:56:45.717Z,68.90
2018-03-29T13:59:13.166Z,67.70
2018-03-29T14:01:40.636Z,68.50
2018-03-29T14:04:08.091Z,69.70
2018-03-29T14:06:35.568Z,68.30
2018-03-29T14:09:03.031Z,68.80
2018-03-29T14:11:30.490Z,67.00
2018-03-29T14:13:57.991Z,67.90
2018-03-29T14:16:25.428Z,66.00
2018-03-29T14:18:53.684Z,64.50
2018-03-29T14:21:21.131Z,64.60
2018-03-29T14:23:49.339Z,62.10
2018-03-29T14:26:17.568Z,62.40
2018-03-29T14:28:45.784Z,61.30
2018-03-29T14:31:14.024Z,61.60
2018-03-29T14:33:41.497Z,62.10
2018-03-29T14:36:08.987Z,62.60
2018-03-29T14:38:37.188Z,63.50
2018-03-29T14:41:04.674Z,63.40
2018-03-29T14:43:32.123Z,63.10
2018-03-29T14:45:59.602Z,63.40
2018-03-29T14:48:27.053Z,63.10
2018-03-29T14:50:54.510Z,63.10
2018-03-29T14:53:22.023Z,64.50
2018-03-29T14:55:49.492Z,69.40
2018-03-29T14:58:16.938Z,68.80
2018-03-29T15:00:45.010Z,69.80
2018-03-29T15:03:12.464Z,74.40
2018-03-29T15:05:39.939Z,76.30
2018-03-29T15:08:07.381Z,74.80
2018-03-29T15:10:34.839Z,73.90
2018-03-29T15:13:02.314Z,71.10
2018-03-29T15:15:29.763Z,73.10
2018-03-29T15:17:58.131Z,67.20
2018-03-29T15:20:25.607Z,68.00
2018-03-29T15:22:53.887Z,67.40
2018-03-29T15:25:21.422Z,65.40
2018-03-29T15:27:48.896Z,61.70
2018-03-29T15:30:16.335Z,60.10
2018-03-29T15:32:43.799Z,59.90
2018-03-29T15:35:11.270Z,61.30
2018-03-29T15:37:38.726Z,62.70
2018-03-29T15:40:06.199Z,63.80
2018-03-29T15:42:33.667Z,65.10
2018-03-29T15:45:01.135Z,66.40
2018-03-29T15:47:29.388Z,67.60
2018-03-29T15:49:56.826Z,67.60
2018-03-29T15:52:24.312Z,67.50
2018-03-29T15:54:51.748Z,67.30
2018-03-29T15:57:19.259Z,68.60
2018-03-29T15:59:47.088Z,68.20
2018-03-29T16:02:14.534Z,70.20
2018-03-29T16:04:41.988Z,70.30
2018-03-29T16:07:09.520Z,71.40
2018-03-29T16:09:36.970Z,69.70
2018-03-29T16:12:04.444Z,71.20
2018-03-29T16:14:31.900Z,71.80
2018-03-29T16:16:59.333Z,70.40
2018-03-29T16:19:27.452Z,71.20
2018-03-29T16:21:55.704Z,72.30
2018-03-29T16:24:23.246Z,72.20
2018-03-29T16:26:50.631Z,72.50
2018-03-29T16:29:18.072Z,72.10
2018-03-29T16:31:45.535Z,72.40
2018-03-29T16:34:12.999Z,70.30
2018-03-29T16:36:40.456Z,68.70
2018-03-29T16:39:07.899Z,69.40
2018-03-29T16:41:35.386Z,70.80
2018-03-29T16:44:02.825Z,69.80
2018-03-29T16:46:30.287Z,72.10
2018-03-29T16:48:57.767Z,72.30
2018-03-29T16:51:25.206Z,71.50
2018-03-29T16:53:52.680Z,72.20
2018-03-29T16:56:20.136Z,74.00
2018-03-29T16:58:47.579Z,73.90
2018-03-29T17:01:15.055Z,74.40
2018-03-29T17:03:42.511Z,75.60
2018-03-29T17:06:09.971Z,75.00
2018-03-29T17:08:37.419Z,75.70
2018-03-29T17:11:04.862Z,75.50
2018-03-29T17:13:32.322Z,76.20
2018-03-29T17:15:59.754Z,76.10
2018-03-29T17:18:27.227Z,75.40
2018-03-29T17:20:54.672Z,75.80
2018-03-29T17:23:22.156Z,76.10
2018-03-29T17:25:49.599Z,76.60
2018-03-29T17:28:17.799Z,76.10
2018-03-29T17:30:45.253Z,75.80
2018-03-29T17:33:12.688Z,76.30
2018-03-29T17:35:40.154Z,75.80
2018-03-29T17:38:07.599Z,76.20
2018-03-29T17:40:35.086Z,77.30
2018-03-29T17:43:02.539Z,76.20
2018-03-29T17:45:29.999Z,76.50
2018-03-29T17:47:57.510Z,76.70
2018-03-29T17:50:25.778Z,76.60
2018-03-29T17:52:53.223Z,77.00
2018-03-29T17:55:20.671Z,77.00
2018-03-29T17:57:48.155Z,77.40
2018-03-29T18:00:15.641Z,77.30
2018-03-29T18:02:43.113Z,77.70
2018-03-29T18:05:10.608Z,78.20
2018-03-29T18:07:38.123Z,78.20
2018-03-29T18:10:05.582Z,78.10
2018-03-29T18:12:33.027Z,77.60
2018-03-29T18:15:00.477Z,77.80
2018-03-29T18:17:28.013Z,77.60
2018-03-29T18:19:55.453Z,76.80
2018-03-29T18:22:23.677Z,77.90
2018-03-29T18:24:51.124Z,77.70
2018-03-29T18:27:18.614Z,77.70
2018-03-29T18:29:46.057Z,77.70
2018-03-29T18:32:13.520Z,76.80
2018-03-29T18:34:41.066Z,76.80
2018-03-29T18:37:08.518Z,77.40
2018-03-29T18:39:35.984Z,76.00
2018-03-29T18:42:03.526Z,76.90
2018-03-29T18:44:30.983Z,78.60
2018-03-29T18:46:58.463Z,77.80
2018-03-29T18:49:26.118Z,78.50
2018-03-29T18:51:53.557Z,79.00
2018-03-29T18:54:21.097Z,79.60
2018-03-29T18:56:48.552Z,79.20
2018-03-29T18:59:16.000Z,78.70
2018-03-29T19:01:43.443Z,80.00
2018-03-29T19:04:11.027Z,80.20
2018-03-29T19:06:38.442Z,80.60
2018-03-29T19:09:06.684Z,79.50
2018-03-29T19:11:34.142Z,79.10
2018-03-29T19:14:01.598Z,80.20
2018-03-29T19:16:29.075Z,80.40
2018-03-29T19:18:56.614Z,80.60
2018-03-29T19:21:24.083Z,81.30
2018-03-29T19:23:51.530Z,81.60
2018-03-29T19:26:18.979Z,82.00
2018-03-29T19:28:46.438Z,83.40
2018-03-29T19:31:13.879Z,83.70
2018-03-29T19:33:41.377Z,84.30
2018-03-29T19:36:08.846Z,84.20
2018-03-29T19:38:36.289Z,85.20
2018-03-29T19:41:03.754Z,85.20
2018-03-29T19:43:31.191Z,84.10
2018-03-29T19:45:58.652Z,84.90
2018-03-29T19:48:26.083Z,83.10
2018-03-29T19:50:53.582Z,83.80
2018-03-29T19:53:21.091Z,83.60
2018-03-29T19:55:48.534Z,84.90
2018-03-29T19:58:16.770Z,84.10
2018-03-29T20:00:44.235Z,84.10
2018-03-29T20:03:11.683Z,84.90
2018-03-29T20:05:39.138Z,84.00
2018-03-29T20:08:06.598Z,85.00
2018-03-29T20:10:34.059Z,85.80
2018-03-29T20:13:01.516Z,86.10
2018-03-29T20:15:28.971Z,86.20
2018-03-29T20:17:56.423Z,85.70
2018-03-29T20:20:23.889Z,85.30
2018-03-29T20:22:51.353Z,85.00
2018-03-29T20:25:18.778Z,84.50
2018-03-29T20:27:46.256Z,84.90
2018-03-29T20:30:13.699Z,83.60
2018-03-29T20:32:41.135Z,84.10
2018-03-29T20:35:08.587Z,84.10
2018-03-29T20:37:36.091Z,83.80
2018-03-29T20:40:03.543Z,83.90
2018-03-29T20:42:30.966Z,84.30
2018-03-29T20:44:58.431Z,84.60
2018-03-29T20:47:25.901Z,84.60
2018-03-29T20:49:53.357Z,84.70
2018-03-29T20:52:20.803Z,85.20
2018-03-29T20:54:48.254Z,85.40
2018-03-29T20:57:15.707Z,85.90
2018-03-29T20:59:43.140Z,85.50
2018-03-29T21:02:10.592Z,85.60
2018-03-29T21:04:38.081Z,86.40
2018-03-29T21:07:05.514Z,86.00
2018-03-29T21:09:32.963Z,85.90
2018-03-29T21:12:00.432Z,86.90
2018-03-29T21:14:27.890Z,86.90
2018-03-29T21:16:55.340Z,86.00
2018-03-29T21:19:22.775Z,86.00
2018-03-29T21:21:50.261Z,86.60
2018-03-29T21:24:17.716Z,88.10
2018-03-29T21:26:45.162Z,89.30
2018-03-29T21:29:12.639Z,88.10
2018-03-29T21:31:40.100Z,87.70
2018-03-29T21:34:07.544Z,88.10
2018-03-29T21:36:35.005Z,87.60
2018-03-29T21:39:02.438Z,87.50
2018-03-29T21:41:29.906Z,87.40
2018-03-29T21:43:57.356Z,87.90
2018-03-29T21:46:24.800Z,88.60
2018-03-29T21:48:53.026Z,88.80
2018-03-29T21:51:20.488Z,88.70
2018-03-29T21:53:47.920Z,89.20
2018-03-29T21:56:15.383Z,89.10
2018-03-29T21:58:42.852Z,88.70
2018-03-29T22:01:10.319Z,89.20
2018-03-29T22:03:37.778Z,89.10
2018-03-29T22:06:05.238Z,90.20
2018-03-29T22:08:32.690Z,89.50
2018-03-29T22:11:00.164Z,89.40
2018-03-29T22:13:27.607Z,89.40
2018-03-29T22:15:55.081Z,89.00
2018-03-29T22:18:22.539Z,89.40
2018-03-29T22:20:50.786Z,90.30
2018-03-29T22:23:18.257Z,90.10
2018-03-29T22:25:45.681Z,90.40
2018-03-29T22:28:13.145Z,90.20
2018-03-29T22:30:40.599Z,90.30
2018-03-29T22:33:08.082Z,90.50
2018-03-29T22:35:35.531Z,90.40
2018-03-29T22:38:02.975Z,90.50
2018-03-29T22:40:30.429Z,90.20
2018-03-29T22:42:57.883Z,90.10
2018-03-29T22:45:25.351Z,90.00
2018-03-29T22:47:52.815Z,90.20
2018-03-29T22:50:20.254Z,90.20
2018-03-29T22:52:47.725Z,90.30
2018-03-29T22:55:15.177Z,90.30
2018-03-29T22:57:42.691Z,90.10
2018-03-29T23:00:10.132Z,90.00
2018-03-29T23:02:38.363Z,90.00
2018-03-29T23:05:05.828Z,90.00
2018-03-29T23:07:33.276Z,89.30
2018-03-29T23:10:00.746Z,89.40
2018-03-29T23:12:28.220Z,89.50
2018-03-29T23:14:55.676Z,89.30
2018-03-29T23:17:23.170Z,89.10
2018-03-29T23:19:50.642Z,89.30
2018-03-29T23:22:18.082Z,88.90
2018-03-29T23:24:45.544Z,89.30
2018-03-29T23:27:12.979Z,89.40
2018-03-29T23:29:41.196Z,90.10
2018-03-29T23:32:08.673Z,90.10
2018-03-29T23:34:36.132Z,90.10
2018-03-29T23:37:03.641Z,90.20
2018-03-29T23:39:31.862Z,90.40
2018-03-29T23:41:59.331Z,90.40
2018-03-29T23:44:26.762Z,90.50
2018-03-29T23:46:54.205Z,90.60
2018-03-29T23:49:21.684Z,90.80
2018-03-29T23:51:49.166Z,91.00
2018-03-29T23:54:16.619Z,91.00
2018-03-29T23:56:44.103Z,91.20
2018-03-29T23:59:12.331Z,91.40
